sensor_id;sensor_type;location;lat;lon;timestamp;P1;durP1;ratioP1;P2;durP2;ratioP2
34585;SDS011;20816;50.950;11.108;2022-10-22T00:02:20;1.02;;;0.80;;
34585;SDS011;20816;50.950;11.108;2022-10-22T00:04:47;3.55;;;0.90;;
34585;SDS011;20816;50.950;11.108;2022-10-22T00:07:19;2.72;;;0.90;;
34585;SDS011;20816;50.950;11.108;2022-10-22T00:09:46;2.67;;;1.00;;
34585;SDS011;20816;50.950;11.108;2022-10-22T00:12:14;1.20;;;1.10;;
34585;SDS011;20816;50.950;11.108;2022-10-22T00:14:41;1.67;;;1.02;;
34585;SDS011;20816;50.950;11.108;2022-10-22T00:17:08;1.80;;;1.48;;
34585;SDS011;20816;50.950;11.108;2022-10-22T00:19:37;3.13;;;0.98;;
34585;SDS011;20816;50.950;11.108;2022-10-22T00:22:04;2.45;;;1.00;;
34585;SDS011;20816;50.950;11.108;2022-10-22T00:24:32;2.85;;;1.10;;
34585;SDS011;20816;50.950;11.108;2022-10-22T00:26:59;1.65;;;0.95;;
34585;SDS011;20816;50.950;11.108;2022-10-22T00:29:26;0.97;;;0.87;;
34585;SDS011;20816;50.950;11.108;2022-10-22T00:31:53;2.72;;;0.88;;
34585;SDS011;20816;50.950;11.108;2022-10-22T00:34:21;2.15;;;0.70;;
34585;SDS011;20816;50.950;11.108;2022-10-22T00:36:48;2.35;;;0.70;;
34585;SDS011;20816;50.950;11.108;2022-10-22T00:39:17;1.55;;;0.80;;
34585;SDS011;20816;50.950;11.108;2022-10-22T00:41:46;4.25;;;1.10;;
34585;SDS011;20816;50.950;11.108;2022-10-22T00:47:18;2.80;;;1.00;;
34585;SDS011;20816;50.950;11.108;2022-10-22T00:49:46;3.25;;;1.08;;
34585;SDS011;20816;50.950;11.108;2022-10-22T00:52:13;1.67;;;1.15;;
34585;SDS011;20816;50.950;11.108;2022-10-22T00:54:40;1.80;;;0.75;;
34585;SDS011;20816;50.950;11.108;2022-10-22T00:57:08;2.90;;;0.95;;
34585;SDS011;20816;50.950;11.108;2022-10-22T00:59:35;0.63;;;0.63;;
34585;SDS011;20816;50.950;11.108;2022-10-22T01:02:03;0.73;;;0.73;;
34585;SDS011;20816;50.950;11.108;2022-10-22T01:04:30;1.50;;;0.90;;
34585;SDS011;20816;50.950;11.108;2022-10-22T01:06:56;1.92;;;0.90;;
34585;SDS011;20816;50.950;11.108;2022-10-22T01:09:45;1.50;;;0.90;;
34585;SDS011;20816;50.950;11.108;2022-10-22T01:12:26;2.72;;;1.58;;
34585;SDS011;20816;50.950;11.108;2022-10-22T01:17:31;1.45;;;0.95;;
34585;SDS011;20816;50.950;11.108;2022-10-22T01:20:14;2.80;;;1.75;;
34585;SDS011;20816;50.950;11.108;2022-10-22T01:25:59;0.73;;;0.60;;
34585;SDS011;20816;50.950;11.108;2022-10-22T01:31:22;1.13;;;0.85;;
34585;SDS011;20816;50.950;11.108;2022-10-22T01:33:54;2.35;;;0.88;;
34585;SDS011;20816;50.950;11.108;2022-10-22T01:36:23;0.75;;;0.60;;
34585;SDS011;20816;50.950;11.108;2022-10-22T01:38:50;4.78;;;1.05;;
34585;SDS011;20816;50.950;11.108;2022-10-22T01:41:18;1.45;;;1.00;;
34585;SDS011;20816;50.950;11.108;2022-10-22T01:43:45;2.20;;;0.90;;
34585;SDS011;20816;50.950;11.108;2022-10-22T01:46:12;2.53;;;1.02;;
34585;SDS011;20816;50.950;11.108;2022-10-22T01:54:13;0.70;;;0.70;;
34585;SDS011;20816;50.950;11.108;2022-10-22T02:05:27;0.88;;;0.75;;
34585;SDS011;20816;50.950;11.108;2022-10-22T02:08:00;0.73;;;0.70;;
34585;SDS011;20816;50.950;11.108;2022-10-22T02:10:27;0.90;;;0.90;;
34585;SDS011;20816;50.950;11.108;2022-10-22T02:12:55;3.08;;;0.60;;
34585;SDS011;20816;50.950;11.108;2022-10-22T02:15:25;0.82;;;0.80;;
34585;SDS011;20816;50.950;11.108;2022-10-22T02:17:55;1.50;;;1.25;;
34585;SDS011;20816;50.950;11.108;2022-10-22T02:20:26;1.50;;;0.80;;
34585;SDS011;20816;50.950;11.108;2022-10-22T02:22:55;1.13;;;1.05;;
34585;SDS011;20816;50.950;11.108;2022-10-22T02:25:24;1.10;;;0.90;;
34585;SDS011;20816;50.950;11.108;2022-10-22T02:28:04;1.15;;;0.80;;
34585;SDS011;20816;50.950;11.108;2022-10-22T02:30:41;0.98;;;0.75;;
34585;SDS011;20816;50.950;11.108;2022-10-22T02:33:17;3.80;;;0.87;;
34585;SDS011;20816;50.950;11.108;2022-10-22T02:35:47;0.80;;;0.80;;
34585;SDS011;20816;50.950;11.108;2022-10-22T02:38:15;2.15;;;1.52;;
34585;SDS011;20816;50.950;11.108;2022-10-22T02:40:43;1.23;;;0.70;;
34585;SDS011;20816;50.950;11.108;2022-10-22T02:43:10;1.90;;;1.40;;
34585;SDS011;20816;50.950;11.108;2022-10-22T02:45:36;1.17;;;0.80;;
34585;SDS011;20816;50.950;11.108;2022-10-22T02:48:03;1.17;;;1.00;;
34585;SDS011;20816;50.950;11.108;2022-10-22T02:50:30;1.20;;;1.10;;
34585;SDS011;20816;50.950;11.108;2022-10-22T02:52:57;4.55;;;1.65;;
34585;SDS011;20816;50.950;11.108;2022-10-22T02:55:23;3.45;;;1.33;;
34585;SDS011;20816;50.950;11.108;2022-10-22T02:57:50;1.52;;;0.95;;
34585;SDS011;20816;50.950;11.108;2022-10-22T03:00:17;2.72;;;1.23;;
34585;SDS011;20816;50.950;11.108;2022-10-22T03:02:43;1.15;;;1.05;;
34585;SDS011;20816;50.950;11.108;2022-10-22T03:05:10;1.73;;;1.38;;
34585;SDS011;20816;50.950;11.108;2022-10-22T03:07:37;1.40;;;1.30;;
34585;SDS011;20816;50.950;11.108;2022-10-22T03:10:04;4.43;;;1.55;;
34585;SDS011;20816;50.950;11.108;2022-10-22T03:12:31;3.80;;;1.42;;
34585;SDS011;20816;50.950;11.108;2022-10-22T03:14:58;1.48;;;0.98;;
34585;SDS011;20816;50.950;11.108;2022-10-22T03:17:25;1.55;;;1.00;;
34585;SDS011;20816;50.950;11.108;2022-10-22T03:19:51;3.10;;;1.48;;
34585;SDS011;20816;50.950;11.108;2022-10-22T03:22:28;2.72;;;1.08;;
34585;SDS011;20816;50.950;11.108;2022-10-22T03:24:58;1.45;;;1.35;;
34585;SDS011;20816;50.950;11.108;2022-10-22T03:27:28;1.85;;;1.40;;
34585;SDS011;20816;50.950;11.108;2022-10-22T03:29:55;2.53;;;1.27;;
34585;SDS011;20816;50.950;11.108;2022-10-22T03:32:23;4.10;;;1.88;;
34585;SDS011;20816;50.950;11.108;2022-10-22T03:34:49;3.00;;;1.40;;
34585;SDS011;20816;50.950;11.108;2022-10-22T03:37:16;5.78;;;1.90;;
34585;SDS011;20816;50.950;11.108;2022-10-22T03:39:43;2.53;;;1.65;;
34585;SDS011;20816;50.950;11.108;2022-10-22T03:42:10;1.50;;;1.40;;
34585;SDS011;20816;50.950;11.108;2022-10-22T03:44:38;4.15;;;1.80;;
34585;SDS011;20816;50.950;11.108;2022-10-22T03:47:05;2.30;;;1.50;;
34585;SDS011;20816;50.950;11.108;2022-10-22T03:49:32;4.43;;;2.80;;
34585;SDS011;20816;50.950;11.108;2022-10-22T03:52:09;1.90;;;1.48;;
34585;SDS011;20816;50.950;11.108;2022-10-22T03:54:38;2.75;;;1.58;;
34585;SDS011;20816;50.950;11.108;2022-10-22T03:57:05;1.40;;;1.30;;
34585;SDS011;20816;50.950;11.108;2022-10-22T03:59:35;2.22;;;0.95;;
34585;SDS011;20816;50.950;11.108;2022-10-22T04:02:04;1.40;;;1.23;;
34585;SDS011;20816;50.950;11.108;2022-10-22T04:04:31;1.60;;;1.33;;
34585;SDS011;20816;50.950;11.108;2022-10-22T04:06:58;1.58;;;1.27;;
34585;SDS011;20816;50.950;11.108;2022-10-22T04:09:24;4.35;;;1.77;;
34585;SDS011;20816;50.950;11.108;2022-10-22T04:11:51;2.28;;;1.55;;
34585;SDS011;20816;50.950;11.108;2022-10-22T04:14:18;5.75;;;1.98;;
34585;SDS011;20816;50.950;11.108;2022-10-22T04:16:44;2.58;;;1.50;;
34585;SDS011;20816;50.950;11.108;2022-10-22T04:19:12;2.55;;;2.10;;
34585;SDS011;20816;50.950;11.108;2022-10-22T04:21:38;1.65;;;1.42;;
34585;SDS011;20816;50.950;11.108;2022-10-22T04:24:05;4.72;;;1.25;;
34585;SDS011;20816;50.950;11.108;2022-10-22T04:26:32;3.33;;;1.23;;
34585;SDS011;20816;50.950;11.108;2022-10-22T04:28:58;1.95;;;1.60;;
34585;SDS011;20816;50.950;11.108;2022-10-22T04:31:25;2.33;;;1.52;;
34585;SDS011;20816;50.950;11.108;2022-10-22T04:33:52;2.53;;;1.20;;
34585;SDS011;20816;50.950;11.108;2022-10-22T04:36:20;2.13;;;1.55;;
34585;SDS011;20816;50.950;11.108;2022-10-22T04:38:51;2.28;;;1.67;;
34585;SDS011;20816;50.950;11.108;2022-10-22T04:41:23;2.60;;;1.20;;
34585;SDS011;20816;50.950;11.108;2022-10-22T04:43:52;1.88;;;1.48;;
34585;SDS011;20816;50.950;11.108;2022-10-22T04:46:20;1.65;;;1.30;;
34585;SDS011;20816;50.950;11.108;2022-10-22T04:48:47;1.83;;;1.35;;
34585;SDS011;20816;50.950;11.108;2022-10-22T04:51:14;2.03;;;1.63;;
34585;SDS011;20816;50.950;11.108;2022-10-22T04:53:43;2.45;;;1.80;;
34585;SDS011;20816;50.950;11.108;2022-10-22T04:56:23;4.10;;;1.75;;
34585;SDS011;20816;50.950;11.108;2022-10-22T04:58:56;1.90;;;1.60;;
34585;SDS011;20816;50.950;11.108;2022-10-22T05:01:25;2.53;;;2.03;;
34585;SDS011;20816;50.950;11.108;2022-10-22T05:03:54;2.80;;;1.67;;
34585;SDS011;20816;50.950;11.108;2022-10-22T05:06:22;1.50;;;1.13;;
34585;SDS011;20816;50.950;11.108;2022-10-22T05:08:53;1.50;;;1.00;;
34585;SDS011;20816;50.950;11.108;2022-10-22T05:11:23;0.90;;;0.68;;
34585;SDS011;20816;50.950;11.108;2022-10-22T05:13:55;2.20;;;1.20;;
34585;SDS011;20816;50.950;11.108;2022-10-22T05:16:23;1.42;;;1.13;;
34585;SDS011;20816;50.950;11.108;2022-10-22T05:18:50;1.13;;;1.00;;
34585;SDS011;20816;50.950;11.108;2022-10-22T05:21:17;4.43;;;0.82;;
34585;SDS011;20816;50.950;11.108;2022-10-22T05:23:46;2.78;;;0.90;;
34585;SDS011;20816;50.950;11.108;2022-10-22T05:26:15;0.90;;;0.60;;
34585;SDS011;20816;50.950;11.108;2022-10-22T05:28:43;0.50;;;0.50;;
34585;SDS011;20816;50.950;11.108;2022-10-22T05:31:10;1.42;;;1.13;;
34585;SDS011;20816;50.950;11.108;2022-10-22T05:33:39;2.25;;;0.90;;
34585;SDS011;20816;50.950;11.108;2022-10-22T05:36:06;1.40;;;0.77;;
34585;SDS011;20816;50.950;11.108;2022-10-22T05:38:36;0.90;;;0.82;;
34585;SDS011;20816;50.950;11.108;2022-10-22T05:41:03;0.73;;;0.73;;
34585;SDS011;20816;50.950;11.108;2022-10-22T05:43:35;3.38;;;0.70;;
34585;SDS011;20816;50.950;11.108;2022-10-22T05:46:04;0.68;;;0.52;;
34585;SDS011;20816;50.950;11.108;2022-10-22T05:48:32;1.85;;;0.80;;
34585;SDS011;20816;50.950;11.108;2022-10-22T05:51:03;0.98;;;0.68;;
34585;SDS011;20816;50.950;11.108;2022-10-22T05:53:31;1.15;;;1.08;;
34585;SDS011;20816;50.950;11.108;2022-10-22T05:56:01;0.38;;;0.32;;
34585;SDS011;20816;50.950;11.108;2022-10-22T05:58:30;0.43;;;0.43;;
34585;SDS011;20816;50.950;11.108;2022-10-22T06:01:00;0.65;;;0.40;;
34585;SDS011;20816;50.950;11.108;2022-10-22T06:03:31;0.68;;;0.47;;
34585;SDS011;20816;50.950;11.108;2022-10-22T06:05:59;0.30;;;0.30;;
34585;SDS011;20816;50.950;11.108;2022-10-22T06:08:27;0.60;;;0.60;;
34585;SDS011;20816;50.950;11.108;2022-10-22T06:10:54;1.65;;;1.13;;
34585;SDS011;20816;50.950;11.108;2022-10-22T06:13:22;3.22;;;0.40;;
34585;SDS011;20816;50.950;11.108;2022-10-22T06:15:49;0.68;;;0.43;;
34585;SDS011;20816;50.950;11.108;2022-10-22T06:18:18;0.77;;;0.40;;
34585;SDS011;20816;50.950;11.108;2022-10-22T06:20:45;0.55;;;0.32;;
34585;SDS011;20816;50.950;11.108;2022-10-22T06:23:13;2.60;;;0.30;;
34585;SDS011;20816;50.950;11.108;2022-10-22T06:25:40;1.52;;;0.60;;
34585;SDS011;20816;50.950;11.108;2022-10-22T06:28:08;0.82;;;0.30;;
34585;SDS011;20816;50.950;11.108;2022-10-22T06:30:36;0.50;;;0.40;;
34585;SDS011;20816;50.950;11.108;2022-10-22T06:33:10;1.47;;;0.40;;
34585;SDS011;20816;50.950;11.108;2022-10-22T06:35:37;0.95;;;0.75;;
34585;SDS011;20816;50.950;11.108;2022-10-22T06:38:04;0.20;;;0.20;;
34585;SDS011;20816;50.950;11.108;2022-10-22T06:40:32;0.25;;;0.20;;
34585;SDS011;20816;50.950;11.108;2022-10-22T06:42:59;0.15;;;0.15;;
34585;SDS011;20816;50.950;11.108;2022-10-22T06:45:26;0.30;;;0.30;;
34585;SDS011;20816;50.950;11.108;2022-10-22T06:47:52;2.38;;;0.40;;
34585;SDS011;20816;50.950;11.108;2022-10-22T06:50:20;0.38;;;0.22;;
34585;SDS011;20816;50.950;11.108;2022-10-22T06:52:47;1.70;;;0.30;;
34585;SDS011;20816;50.950;11.108;2022-10-22T06:55:14;0.28;;;0.20;;
34585;SDS011;20816;50.950;11.108;2022-10-22T06:57:40;0.68;;;0.30;;
34585;SDS011;20816;50.950;11.108;2022-10-22T07:00:08;0.30;;;0.25;;
34585;SDS011;20816;50.950;11.108;2022-10-22T07:02:35;0.65;;;0.55;;
34585;SDS011;20816;50.950;11.108;2022-10-22T07:05:02;2.08;;;0.32;;
34585;SDS011;20816;50.950;11.108;2022-10-22T07:07:28;0.20;;;0.20;;
34585;SDS011;20816;50.950;11.108;2022-10-22T07:09:55;1.33;;;0.30;;
34585;SDS011;20816;50.950;11.108;2022-10-22T07:12:22;0.10;;;0.10;;
34585;SDS011;20816;50.950;11.108;2022-10-22T07:14:48;1.35;;;0.40;;
34585;SDS011;20816;50.950;11.108;2022-10-22T07:17:15;0.60;;;0.27;;
34585;SDS011;20816;50.950;11.108;2022-10-22T07:19:42;1.80;;;0.23;;
34585;SDS011;20816;50.950;11.108;2022-10-22T07:22:12;0.07;;;0.07;;
34585;SDS011;20816;50.950;11.108;2022-10-22T07:24:38;0.20;;;0.20;;
34585;SDS011;20816;50.950;11.108;2022-10-22T07:27:05;0.40;;;0.22;;
34585;SDS011;20816;50.950;11.108;2022-10-22T07:29:36;0.10;;;0.10;;
34585;SDS011;20816;50.950;11.108;2022-10-22T07:32:02;1.35;;;0.88;;
34585;SDS011;20816;50.950;11.108;2022-10-22T07:34:29;2.88;;;1.50;;
34585;SDS011;20816;50.950;11.108;2022-10-22T07:36:55;1.88;;;1.05;;
34585;SDS011;20816;50.950;11.108;2022-10-22T07:39:22;2.00;;;0.37;;
34585;SDS011;20816;50.950;11.108;2022-10-22T07:41:51;0.40;;;0.40;;
34585;SDS011;20816;50.950;11.108;2022-10-22T07:44:18;0.63;;;0.10;;
34585;SDS011;20816;50.950;11.108;2022-10-22T07:46:44;1.07;;;0.27;;
34585;SDS011;20816;50.950;11.108;2022-10-22T07:49:14;0.10;;;0.10;;
34585;SDS011;20816;50.950;11.108;2022-10-22T07:51:40;0.10;;;0.10;;
34585;SDS011;20816;50.950;11.108;2022-10-22T07:54:07;0.20;;;0.20;;
34585;SDS011;20816;50.950;11.108;2022-10-22T07:56:34;0.25;;;0.20;;
34585;SDS011;20816;50.950;11.108;2022-10-22T07:59:00;0.50;;;0.50;;
34585;SDS011;20816;50.950;11.108;2022-10-22T08:01:27;0.45;;;0.45;;
34585;SDS011;20816;50.950;11.108;2022-10-22T08:03:53;0.40;;;0.40;;
34585;SDS011;20816;50.950;11.108;2022-10-22T08:06:20;0.95;;;0.32;;
34585;SDS011;20816;50.950;11.108;2022-10-22T08:08:47;0.95;;;0.75;;
34585;SDS011;20816;50.950;11.108;2022-10-22T08:11:13;0.28;;;0.28;;
34585;SDS011;20816;50.950;11.108;2022-10-22T08:13:40;1.30;;;1.08;;
34585;SDS011;20816;50.950;11.108;2022-10-22T08:16:10;2.22;;;0.40;;
34585;SDS011;20816;50.950;11.108;2022-10-22T08:18:37;0.70;;;0.60;;
34585;SDS011;20816;50.950;11.108;2022-10-22T08:21:04;0.87;;;0.40;;
34585;SDS011;20816;50.950;11.108;2022-10-22T08:23:31;0.70;;;0.47;;
34585;SDS011;20816;50.950;11.108;2022-10-22T08:25:58;0.65;;;0.32;;
34585;SDS011;20816;50.950;11.108;2022-10-22T08:28:25;0.65;;;0.40;;
34585;SDS011;20816;50.950;11.108;2022-10-22T08:30:54;3.53;;;0.75;;
34585;SDS011;20816;50.950;11.108;2022-10-22T08:33:21;0.35;;;0.30;;
34585;SDS011;20816;50.950;11.108;2022-10-22T08:35:48;0.35;;;0.35;;
34585;SDS011;20816;50.950;11.108;2022-10-22T08:38:16;0.20;;;0.20;;
34585;SDS011;20816;50.950;11.108;2022-10-22T08:40:46;0.85;;;0.20;;
34585;SDS011;20816;50.950;11.108;2022-10-22T08:46:05;0.90;;;0.30;;
34585;SDS011;20816;50.950;11.108;2022-10-22T08:51:16;0.40;;;0.40;;
34585;SDS011;20816;50.950;11.108;2022-10-22T08:56:34;0.20;;;0.20;;
34585;SDS011;20816;50.950;11.108;2022-10-22T09:01:44;0.10;;;0.10;;
34585;SDS011;20816;50.950;11.108;2022-10-22T09:04:18;0.32;;;0.32;;
34585;SDS011;20816;50.950;11.108;2022-10-22T09:06:51;0.73;;;0.40;;
34585;SDS011;20816;50.950;11.108;2022-10-22T09:09:20;0.13;;;0.13;;
34585;SDS011;20816;50.950;11.108;2022-10-22T09:11:51;2.40;;;0.43;;
34585;SDS011;20816;50.950;11.108;2022-10-22T09:14:21;0.10;;;0.10;;
34585;SDS011;20816;50.950;11.108;2022-10-22T09:19:46;0.32;;;0.28;;
34585;SDS011;20816;50.950;11.108;2022-10-22T09:22:27;1.45;;;0.47;;
34585;SDS011;20816;50.950;11.108;2022-10-22T09:27:46;0.32;;;0.20;;
34585;SDS011;20816;50.950;11.108;2022-10-22T09:30:17;0.25;;;0.25;;
34585;SDS011;20816;50.950;11.108;2022-10-22T09:32:49;0.35;;;0.30;;
34585;SDS011;20816;50.950;11.108;2022-10-22T09:35:21;0.40;;;0.20;;
34585;SDS011;20816;50.950;11.108;2022-10-22T09:37:52;0.35;;;0.30;;
34585;SDS011;20816;50.950;11.108;2022-10-22T09:40:21;0.13;;;0.13;;
34585;SDS011;20816;50.950;11.108;2022-10-22T09:42:48;1.45;;;0.65;;
34585;SDS011;20816;50.950;11.108;2022-10-22T09:45:19;0.20;;;0.20;;
34585;SDS011;20816;50.950;11.108;2022-10-22T09:47:49;0.43;;;0.25;;
34585;SDS011;20816;50.950;11.108;2022-10-22T09:50:34;0.98;;;0.25;;
34585;SDS011;20816;50.950;11.108;2022-10-22T09:53:21;2.45;;;0.85;;
34585;SDS011;20816;50.950;11.108;2022-10-22T09:55:55;3.92;;;1.20;;
34585;SDS011;20816;50.950;11.108;2022-10-22T09:58:26;0.38;;;0.20;;
34585;SDS011;20816;50.950;11.108;2022-10-22T10:00:58;0.10;;;0.10;;
34585;SDS011;20816;50.950;11.108;2022-10-22T10:03:31;0.47;;;0.30;;
34585;SDS011;20816;50.950;11.108;2022-10-22T10:06:01;0.20;;;0.20;;
34585;SDS011;20816;50.950;11.108;2022-10-22T10:08:31;0.22;;;0.20;;
34585;SDS011;20816;50.950;11.108;2022-10-22T10:10:59;0.10;;;0.10;;
34585;SDS011;20816;50.950;11.108;2022-10-22T10:13:41;0.45;;;0.30;;
34585;SDS011;20816;50.950;11.108;2022-10-22T10:21:54;0.68;;;0.20;;
34585;SDS011;20816;50.950;11.108;2022-10-22T10:27:22;0.30;;;0.30;;
34585;SDS011;20816;50.950;11.108;2022-10-22T10:30:40;0.75;;;0.75;;
34585;SDS011;20816;50.950;11.108;2022-10-22T10:36:01;0.20;;;0.20;;
34585;SDS011;20816;50.950;11.108;2022-10-22T10:41:03;0.47;;;0.38;;
34585;SDS011;20816;50.950;11.108;2022-10-22T10:49:13;1.85;;;0.50;;
34585;SDS011;20816;50.950;11.108;2022-10-22T10:51:46;0.65;;;0.38;;
34585;SDS011;20816;50.950;11.108;2022-10-22T11:00:29;2.47;;;0.30;;
34585;SDS011;20816;50.950;11.108;2022-10-22T11:03:03;0.55;;;0.50;;
34585;SDS011;20816;50.950;11.108;2022-10-22T11:05:54;0.70;;;0.40;;
34585;SDS011;20816;50.950;11.108;2022-10-22T11:11:01;0.40;;;0.38;;
34585;SDS011;20816;50.950;11.108;2022-10-22T11:13:51;1.67;;;0.75;;
34585;SDS011;20816;50.950;11.108;2022-10-22T11:16:27;0.43;;;0.40;;
34585;SDS011;20816;50.950;11.108;2022-10-22T11:22:17;0.28;;;0.28;;
34585;SDS011;20816;50.950;11.108;2022-10-22T11:24:54;1.58;;;0.47;;
34585;SDS011;20816;50.950;11.108;2022-10-22T11:30:20;4.40;;;0.60;;
34585;SDS011;20816;50.950;11.108;2022-10-22T11:32:52;1.58;;;0.70;;
34585;SDS011;20816;50.950;11.108;2022-10-22T11:35:22;0.90;;;0.60;;
34585;SDS011;20816;50.950;11.108;2022-10-22T11:37:51;0.45;;;0.45;;
34585;SDS011;20816;50.950;11.108;2022-10-22T11:42:58;0.85;;;0.40;;
34585;SDS011;20816;50.950;11.108;2022-10-22T11:45:39;0.73;;;0.73;;
34585;SDS011;20816;50.950;11.108;2022-10-22T11:58:38;1.15;;;0.70;;
34585;SDS011;20816;50.950;11.108;2022-10-22T12:08:55;1.45;;;0.70;;
34585;SDS011;20816;50.950;11.108;2022-10-22T12:19:24;0.57;;;0.57;;
34585;SDS011;20816;50.950;11.108;2022-10-22T12:21:54;1.30;;;0.95;;
34585;SDS011;20816;50.950;11.108;2022-10-22T12:24:24;4.78;;;0.95;;
34585;SDS011;20816;50.950;11.108;2022-10-22T12:26:55;1.50;;;0.47;;
34585;SDS011;20816;50.950;11.108;2022-10-22T12:29:21;1.85;;;0.80;;
34585;SDS011;20816;50.950;11.108;2022-10-22T12:31:49;0.82;;;0.82;;
34585;SDS011;20816;50.950;11.108;2022-10-22T12:34:17;1.65;;;0.80;;
34585;SDS011;20816;50.950;11.108;2022-10-22T12:36:47;0.65;;;0.60;;
34585;SDS011;20816;50.950;11.108;2022-10-22T12:39:16;1.35;;;0.90;;
34585;SDS011;20816;50.950;11.108;2022-10-22T12:41:45;1.13;;;0.40;;
34585;SDS011;20816;50.950;11.108;2022-10-22T12:44:13;2.25;;;1.25;;
34585;SDS011;20816;50.950;11.108;2022-10-22T12:46:44;1.55;;;0.88;;
34585;SDS011;20816;50.950;11.108;2022-10-22T12:49:21;1.73;;;0.60;;
34585;SDS011;20816;50.950;11.108;2022-10-22T12:51:56;0.77;;;0.60;;
34585;SDS011;20816;50.950;11.108;2022-10-22T12:54:28;1.45;;;0.50;;
34585;SDS011;20816;50.950;11.108;2022-10-22T12:56:57;2.20;;;0.80;;
34585;SDS011;20816;50.950;11.108;2022-10-22T12:59:25;1.83;;;0.70;;
34585;SDS011;20816;50.950;11.108;2022-10-22T13:01:54;0.77;;;0.60;;
34585;SDS011;20816;50.950;11.108;2022-10-22T13:07:02;2.03;;;0.60;;
34585;SDS011;20816;50.950;11.108;2022-10-22T13:10:20;0.93;;;0.68;;
34585;SDS011;20816;50.950;11.108;2022-10-22T13:12:50;0.95;;;0.70;;
34585;SDS011;20816;50.950;11.108;2022-10-22T13:17:47;0.82;;;0.57;;
34585;SDS011;20816;50.950;11.108;2022-10-22T13:20:21;0.95;;;0.57;;
34585;SDS011;20816;50.950;11.108;2022-10-22T13:22:55;1.35;;;0.63;;
34585;SDS011;20816;50.950;11.108;2022-10-22T13:25:27;2.85;;;0.73;;
34585;SDS011;20816;50.950;11.108;2022-10-22T13:30:30;0.70;;;0.70;;
34585;SDS011;20816;50.950;11.108;2022-10-22T13:33:00;1.60;;;0.40;;
34585;SDS011;20816;50.950;11.108;2022-10-22T13:35:30;0.60;;;0.60;;
34585;SDS011;20816;50.950;11.108;2022-10-22T13:38:00;1.73;;;0.80;;
34585;SDS011;20816;50.950;11.108;2022-10-22T13:40:27;4.03;;;0.77;;
34585;SDS011;20816;50.950;11.108;2022-10-22T13:42:53;3.45;;;1.73;;
34585;SDS011;20816;50.950;11.108;2022-10-22T13:45:20;0.68;;;0.57;;
34585;SDS011;20816;50.950;11.108;2022-10-22T13:47:48;1.23;;;0.77;;
34585;SDS011;20816;50.950;11.108;2022-10-22T13:50:18;1.63;;;1.17;;
34585;SDS011;20816;50.950;11.108;2022-10-22T13:52:53;2.60;;;1.00;;
34585;SDS011;20816;50.950;11.108;2022-10-22T13:55:22;3.75;;;1.67;;
34585;SDS011;20816;50.950;11.108;2022-10-22T13:58:05;1.77;;;1.20;;
34585;SDS011;20816;50.950;11.108;2022-10-22T14:00:40;1.65;;;0.98;;
34585;SDS011;20816;50.950;11.108;2022-10-22T14:03:12;13.25;;;2.40;;
34585;SDS011;20816;50.950;11.108;2022-10-22T14:05:41;2.70;;;0.90;;
34585;SDS011;20816;50.950;11.108;2022-10-22T14:08:13;2.40;;;0.90;;
34585;SDS011;20816;50.950;11.108;2022-10-22T14:10:42;1.35;;;0.90;;
34585;SDS011;20816;50.950;11.108;2022-10-22T14:13:12;1.55;;;0.95;;
34585;SDS011;20816;50.950;11.108;2022-10-22T14:15:41;1.23;;;0.90;;
34585;SDS011;20816;50.950;11.108;2022-10-22T14:18:11;0.63;;;0.63;;
34585;SDS011;20816;50.950;11.108;2022-10-22T14:20:42;1.40;;;0.50;;
34585;SDS011;20816;50.950;11.108;2022-10-22T14:23:12;1.92;;;0.50;;
34585;SDS011;20816;50.950;11.108;2022-10-22T14:25:41;4.00;;;1.25;;
34585;SDS011;20816;50.950;11.108;2022-10-22T14:28:09;1.50;;;0.80;;
34585;SDS011;20816;50.950;11.108;2022-10-22T14:30:37;3.33;;;0.50;;
34585;SDS011;20816;50.950;11.108;2022-10-22T14:33:20;0.52;;;0.50;;
34585;SDS011;20816;50.950;11.108;2022-10-22T14:35:55;0.57;;;0.57;;
34585;SDS011;20816;50.950;11.108;2022-10-22T14:38:22;1.20;;;0.57;;
34585;SDS011;20816;50.950;11.108;2022-10-22T14:40:48;1.92;;;0.73;;
34585;SDS011;20816;50.950;11.108;2022-10-22T14:43:18;4.68;;;0.70;;
34585;SDS011;20816;50.950;11.108;2022-10-22T14:45:47;5.38;;;0.88;;
34585;SDS011;20816;50.950;11.108;2022-10-22T14:48:15;5.07;;;0.63;;
34585;SDS011;20816;50.950;11.108;2022-10-22T14:50:42;1.95;;;0.63;;
34585;SDS011;20816;50.950;11.108;2022-10-22T14:53:10;1.40;;;0.88;;
34585;SDS011;20816;50.950;11.108;2022-10-22T14:55:39;0.55;;;0.52;;
34585;SDS011;20816;50.950;11.108;2022-10-22T14:58:06;1.58;;;0.60;;
34585;SDS011;20816;50.950;11.108;2022-10-22T15:00:33;0.65;;;0.65;;
34585;SDS011;20816;50.950;11.108;2022-10-22T15:03:02;1.23;;;1.13;;
34585;SDS011;20816;50.950;11.108;2022-10-22T15:05:29;1.33;;;0.47;;
34585;SDS011;20816;50.950;11.108;2022-10-22T15:07:56;0.75;;;0.68;;
34585;SDS011;20816;50.950;11.108;2022-10-22T15:10:24;1.83;;;0.80;;
34585;SDS011;20816;50.950;11.108;2022-10-22T15:12:51;2.72;;;0.70;;
34585;SDS011;20816;50.950;11.108;2022-10-22T15:15:18;2.22;;;0.68;;
34585;SDS011;20816;50.950;11.108;2022-10-22T15:17:48;0.70;;;0.52;;
34585;SDS011;20816;50.950;11.108;2022-10-22T15:20:15;0.88;;;0.40;;
34585;SDS011;20816;50.950;11.108;2022-10-22T15:22:41;3.25;;;0.40;;
34585;SDS011;20816;50.950;11.108;2022-10-22T15:25:09;4.82;;;0.80;;
34585;SDS011;20816;50.950;11.108;2022-10-22T15:27:37;3.95;;;0.55;;
34585;SDS011;20816;50.950;11.108;2022-10-22T15:30:05;1.73;;;0.52;;
34585;SDS011;20816;50.950;11.108;2022-10-22T15:32:32;2.00;;;0.30;;
34585;SDS011;20816;50.950;11.108;2022-10-22T15:34:59;0.65;;;0.50;;
34585;SDS011;20816;50.950;11.108;2022-10-22T15:37:31;1.63;;;0.60;;
34585;SDS011;20816;50.950;11.108;2022-10-22T15:39:57;0.85;;;0.80;;
34585;SDS011;20816;50.950;11.108;2022-10-22T15:42:25;1.50;;;0.50;;
34585;SDS011;20816;50.950;11.108;2022-10-22T15:44:55;4.82;;;0.80;;
34585;SDS011;20816;50.950;11.108;2022-10-22T15:47:24;2.50;;;1.58;;
34585;SDS011;20816;50.950;11.108;2022-10-22T15:49:54;0.65;;;0.65;;
34585;SDS011;20816;50.950;11.108;2022-10-22T15:52:20;1.50;;;0.95;;
34585;SDS011;20816;50.950;11.108;2022-10-22T15:54:47;2.00;;;0.68;;
34585;SDS011;20816;50.950;11.108;2022-10-22T15:57:17;8.98;;;1.10;;
34585;SDS011;20816;50.950;11.108;2022-10-22T15:59:43;1.10;;;0.52;;
34585;SDS011;20816;50.950;11.108;2022-10-22T16:02:10;5.13;;;1.08;;
34585;SDS011;20816;50.950;11.108;2022-10-22T16:04:37;0.82;;;0.70;;
34585;SDS011;20816;50.950;11.108;2022-10-22T16:07:05;1.17;;;0.57;;
34585;SDS011;20816;50.950;11.108;2022-10-22T16:09:31;1.02;;;0.50;;
34585;SDS011;20816;50.950;11.108;2022-10-22T16:11:58;1.45;;;0.43;;
34585;SDS011;20816;50.950;11.108;2022-10-22T16:14:25;2.40;;;0.60;;
34585;SDS011;20816;50.950;11.108;2022-10-22T16:16:54;4.85;;;0.57;;
34585;SDS011;20816;50.950;11.108;2022-10-22T16:19:22;2.65;;;1.38;;
34585;SDS011;20816;50.950;11.108;2022-10-22T16:21:49;0.63;;;0.50;;
34585;SDS011;20816;50.950;11.108;2022-10-22T16:24:18;1.48;;;0.60;;
34585;SDS011;20816;50.950;11.108;2022-10-22T16:26:45;0.30;;;0.30;;
34585;SDS011;20816;50.950;11.108;2022-10-22T16:29:12;3.50;;;0.70;;
34585;SDS011;20816;50.950;11.108;2022-10-22T16:31:39;0.90;;;0.50;;
34585;SDS011;20816;50.950;11.108;2022-10-22T16:34:08;1.75;;;0.93;;
34585;SDS011;20816;50.950;11.108;2022-10-22T16:36:35;3.33;;;0.50;;
34585;SDS011;20816;50.950;11.108;2022-10-22T16:39:03;2.30;;;0.28;;
34585;SDS011;20816;50.950;11.108;2022-10-22T16:41:30;0.52;;;0.52;;